createdAt,value
2023-01-03T00:02:13.263Z,98592.78
2023-01-03T00:05:22.994Z,98583.19
2023-01-03T00:08:29.272Z,98577.63
2023-01-03T00:11:50.435Z,98586.84
2023-01-03T00:14:56.463Z,98581.25
2023-01-03T00:18:03.444Z,98585.97
2023-01-03T00:21:12.233Z,98574.88
2023-01-03T00:24:20.220Z,98588.91
2023-01-03T00:27:26.457Z,98597.84
2023-01-03T00:30:33.341Z,98605.34
2023-01-03T00:33:40.524Z,98609.00
2023-01-03T00:36:50.176Z,98611.06
2023-01-03T00:39:56.185Z,98602.47
2023-01-03T00:43:15.386Z,98612.59
2023-01-03T00:46:24.410Z,98615.38
2023-01-03T00:49:31.719Z,98626.66
2023-01-03T00:52:40.344Z,98624.16
2023-01-03T00:55:47.315Z,98606.59
2023-01-03T00:58:53.817Z,98620.53
2023-01-03T01:02:01.442Z,98624.00
2023-01-03T01:05:08.299Z,98624.88
2023-01-03T01:08:17.837Z,98625.41
2023-01-03T01:11:25.752Z,98624.69
2023-01-03T01:14:34.455Z,98623.31
2023-01-03T01:17:40.521Z,98635.97
2023-01-03T01:20:47.490Z,98635.97
2023-01-03T01:23:57.218Z,98638.91
2023-01-03T01:27:05.933Z,98636.41
2023-01-03T01:30:13.538Z,98632.50
2023-01-03T01:33:20.584Z,98635.16
2023-01-03T01:36:30.449Z,98638.22
2023-01-03T01:39:40.317Z,98634.16
2023-01-03T01:42:58.754Z,98634.44
2023-01-03T01:46:21.247Z,98634.47
2023-01-03T01:49:31.118Z,98642.38
2023-01-03T01:52:51.350Z,98662.97
2023-01-03T01:56:09.439Z,98656.44
2023-01-03T01:59:19.211Z,98651.84
2023-01-03T02:02:27.400Z,98652.09
2023-01-03T02:05:39.672Z,98656.16
2023-01-03T02:08:46.137Z,98667.44
2023-01-03T02:12:14.596Z,98663.94
2023-01-03T02:15:42.031Z,98653.22
2023-01-03T02:19:03.781Z,98667.28
2023-01-03T02:22:55.918Z,98667.13
2023-01-03T02:26:55.327Z,98672.81
2023-01-03T02:30:38.204Z,98683.00
2023-01-03T02:34:02.665Z,98683.28
2023-01-03T02:37:25.190Z,98690.22
2023-01-03T02:40:46.314Z,98696.63
2023-01-03T02:44:01.969Z,98682.16
2023-01-03T02:47:18.794Z,98710.69
2023-01-03T02:50:35.179Z,98724.47
2023-01-03T02:53:50.380Z,98736.13
2023-01-03T02:57:06.437Z,98732.22
2023-01-03T03:00:20.079Z,98737.53
2023-01-03T03:03:35.850Z,98744.38
2023-01-03T03:06:57.358Z,98749.34
2023-01-03T03:10:15.980Z,98757.84
2023-01-03T03:13:33.792Z,98758.00
2023-01-03T03:16:51.535Z,98759.13
2023-01-03T03:20:13.977Z,98763.19
2023-01-03T03:23:43.292Z,98776.25
2023-01-03T03:26:54.127Z,98773.75
2023-01-03T03:30:04.079Z,98787.25
2023-01-03T03:33:17.125Z,98786.69
2023-01-03T03:36:38.564Z,98788.78
2023-01-03T03:40:00.189Z,98793.38
2023-01-03T03:43:31.681Z,98789.38
2023-01-03T03:46:55.232Z,98789.38
2023-01-03T03:50:13.314Z,98799.09
2023-01-03T03:53:32.038Z,98803.69
2023-01-03T03:56:44.020Z,98810.81
2023-01-03T04:00:01.188Z,98810.41
2023-01-03T04:03:11.990Z,98810.81
2023-01-03T04:06:28.842Z,98811.81
2023-01-03T04:09:37.834Z,98816.13
2023-01-03T04:12:44.846Z,98817.34
2023-01-03T04:15:50.895Z,98825.19
2023-01-03T04:18:57.923Z,98823.78
2023-01-03T04:22:04.065Z,98830.88
2023-01-03T04:25:13.982Z,98839.81
2023-01-03T04:28:21.143Z,98837.31
2023-01-03T04:31:28.189Z,98840.38
2023-01-03T04:34:34.271Z,98847.50
2023-01-03T04:37:41.278Z,98845.81
2023-01-03T04:40:50.049Z,98848.47
2023-01-03T04:44:04.708Z,98853.06
2023-01-03T04:47:11.003Z,98838.28
2023-01-03T04:50:18.112Z,98852.09
2023-01-03T04:53:26.227Z,98855.84
2023-01-03T04:56:39.372Z,98851.81
2023-01-03T04:59:45.549Z,98846.53
2023-01-03T05:02:52.377Z,98854.91
2023-01-03T05:06:02.921Z,98852.38
2023-01-03T05:09:09.713Z,98850.03
2023-01-03T05:12:18.983Z,98847.78
2023-01-03T05:15:26.301Z,98850.72
2023-01-03T05:18:34.165Z,98851.56
2023-01-03T05:22:02.309Z,98865.47
2023-01-03T05:25:22.224Z,98870.78
2023-01-03T05:28:32.931Z,98878.28
2023-01-03T05:31:39.081Z,98877.06
2023-01-03T05:34:46.106Z,98873.13
2023-01-03T05:37:55.436Z,98883.47
2023-01-03T05:41:02.616Z,98883.88
2023-01-03T05:44:11.390Z,98886.53
2023-01-03T05:47:18.408Z,98892.53
2023-01-03T05:50:24.469Z,98901.19
2023-01-03T05:53:31.416Z,98906.19
2023-01-03T05:56:38.299Z,98897.97
2023-01-03T05:59:47.785Z,98911.78
2023-01-03T06:02:53.765Z,98919.47
2023-01-03T06:06:06.007Z,98917.66
2023-01-03T06:09:12.191Z,98918.03
2023-01-03T06:12:19.214Z,98919.59
2023-01-03T06:15:28.022Z,98922.50
2023-01-03T06:18:32.273Z,98926.84
2023-01-03T06:21:41.655Z,98934.09
2023-01-03T06:24:48.926Z,98938.00
2023-01-03T06:27:55.218Z,98949.00
2023-01-03T06:31:07.336Z,98939.69
2023-01-03T06:34:14.042Z,98952.78
2023-01-03T06:37:21.319Z,98963.94
2023-01-03T06:40:32.094Z,98967.84
2023-01-03T06:43:44.667Z,98980.28
2023-01-03T06:47:05.698Z,98982.47
2023-01-03T06:50:27.912Z,98994.22
2023-01-03T06:53:39.936Z,98992.13
2023-01-03T06:56:49.442Z,98996.31
2023-01-03T06:59:55.595Z,98999.78
2023-01-03T07:03:10.887Z,98998.38
2023-01-03T07:06:18.447Z,99008.28
2023-01-03T07:09:25.491Z,99010.66
2023-01-03T07:12:43.923Z,99004.78
2023-01-03T07:15:50.978Z,99011.31
2023-01-03T07:19:01.060Z,99020.81
2023-01-03T07:22:07.970Z,99013.38
2023-01-03T07:25:14.305Z,99020.78
2023-01-03T07:28:21.235Z,99025.09
2023-01-03T07:31:27.955Z,99032.94
2023-01-03T07:34:37.589Z,99041.72
2023-01-03T07:37:43.695Z,99048.41
2023-01-03T07:40:50.721Z,99044.22
2023-01-03T07:43:54.183Z,99044.09
2023-01-03T07:47:01.145Z,99045.22
2023-01-03T07:50:11.067Z,99058.59
2023-01-03T07:53:18.339Z,99052.63
2023-01-03T07:56:26.289Z,99056.69
2023-01-03T07:59:33.314Z,99059.59
2023-01-03T08:02:39.849Z,99057.13
2023-01-03T08:05:49.490Z,99064.91
2023-01-03T08:09:08.958Z,99062.38
2023-01-03T08:12:28.175Z,99074.41
2023-01-03T08:15:34.280Z,99071.28
2023-01-03T08:18:43.551Z,99074.53
2023-01-03T08:21:52.339Z,99085.22
2023-01-03T08:24:59.361Z,99083.13
2023-01-03T08:28:07.559Z,99085.44
2023-01-03T08:31:21.253Z,99089.91
2023-01-03T08:34:33.283Z,99092.47
2023-01-03T08:37:43.170Z,99093.22
2023-01-03T08:40:51.172Z,99086.78
2023-01-03T08:44:01.913Z,99097.97
2023-01-03T08:47:12.375Z,99091.88
2023-01-03T08:50:19.613Z,99096.44
2023-01-03T08:53:29.137Z,99100.34
2023-01-03T08:56:36.899Z,99099.75
2023-01-03T08:59:43.088Z,99096.78
2023-01-03T09:02:50.273Z,99106.16
2023-01-03T09:05:56.581Z,99109.91
2023-01-03T09:09:07.884Z,99100.91
2023-01-03T09:12:14.099Z,99112.25
2023-01-03T09:15:21.173Z,99117.06
2023-01-03T09:18:27.319Z,99115.75
2023-01-03T09:21:34.504Z,99113.84
2023-01-03T09:24:43.469Z,99110.09
2023-01-03T09:27:51.722Z,99112.81
2023-01-03T09:30:58.242Z,99110.78
2023-01-03T09:34:06.155Z,99114.00
2023-01-03T09:37:12.334Z,99109.13
2023-01-03T09:40:22.562Z,99106.91
2023-01-03T09:43:41.411Z,99110.56
2023-01-03T09:46:48.668Z,99107.69
2023-01-03T09:50:27.858Z,99105.78
2023-01-03T09:53:49.155Z,99095.06
2023-01-03T09:57:10.344Z,99085.88
2023-01-03T10:00:40.677Z,99089.41
2023-01-03T10:04:10.632Z,99092.66
2023-01-03T10:07:39.725Z,99099.19
2023-01-03T10:11:02.687Z,99106.59
2023-01-03T10:14:34.694Z,99102.72
2023-01-03T10:18:01.914Z,99103.69
2023-01-03T10:21:19.669Z,99104.69
2023-01-03T10:24:33.327Z,99105.91
2023-01-03T10:27:51.624Z,99102.63
2023-01-03T10:31:24.240Z,99097.47
2023-01-03T10:34:31.214Z,99100.06
2023-01-03T10:37:37.463Z,99098.84
2023-01-03T10:40:50.459Z,99095.16
2023-01-03T10:44:02.551Z,99096.34
2023-01-03T10:47:21.008Z,99097.28
2023-01-03T10:50:28.386Z,99096.38
2023-01-03T10:53:45.465Z,99094.25
2023-01-03T10:56:54.346Z,99075.22
2023-01-03T11:00:01.416Z,99084.25
2023-01-03T11:03:23.939Z,99089.28
2023-01-03T11:06:31.484Z,99079.22
2023-01-03T11:09:50.905Z,99085.47
2023-01-03T11:12:58.696Z,99087.09
2023-01-03T11:16:15.900Z,99085.03
2023-01-03T11:19:31.791Z,99076.16
2023-01-03T11:22:49.051Z,99074.66
2023-01-03T11:26:10.190Z,99074.66
2023-01-03T11:29:38.196Z,99070.47
2023-01-03T11:33:29.268Z,99071.16
2023-01-03T11:36:55.112Z,99066.44
2023-01-03T11:40:23.688Z,99055.09
2023-01-03T11:43:53.603Z,99071.78
2023-01-03T11:47:22.533Z,99073.09
2023-01-03T11:50:47.823Z,99063.69
2023-01-03T11:54:11.382Z,99069.19
2023-01-03T11:57:31.317Z,99062.19
2023-01-03T12:00:53.717Z,99062.34
2023-01-03T12:04:28.968Z,99065.84
2023-01-03T12:07:58.484Z,99063.41
2023-01-03T12:11:25.183Z,99056.63
2023-01-03T12:14:46.982Z,99059.91
2023-01-03T12:18:05.101Z,99049.50
2023-01-03T12:21:23.215Z,99044.94
2023-01-03T12:24:43.499Z,99056.47
2023-01-03T12:28:04.266Z,99046.94
2023-01-03T12:31:31.301Z,99056.09
2023-01-03T12:34:53.517Z,99046.25
2023-01-03T12:38:02.244Z,99052.00
2023-01-03T12:41:28.669Z,99054.88
2023-01-03T12:44:45.137Z,99057.31
2023-01-03T12:48:07.595Z,99057.81
2023-01-03T12:51:19.104Z,99051.75
2023-01-03T12:54:45.526Z,99055.53
2023-01-03T12:58:25.204Z,99052.13
2023-01-03T13:01:47.426Z,99049.88
2023-01-03T13:05:16.753Z,99051.59
2023-01-03T13:08:38.790Z,99045.84
2023-01-03T13:11:55.821Z,99050.22
2023-01-03T13:15:35.713Z,99049.63
2023-01-03T13:18:45.282Z,99044.63
2023-01-03T13:22:07.295Z,99054.09
2023-01-03T13:25:35.046Z,99048.44
2023-01-03T13:28:43.273Z,99044.63
2023-01-03T13:32:07.871Z,99042.72
2023-01-03T13:35:38.554Z,99039.06
2023-01-03T13:38:45.648Z,99045.91
2023-01-03T13:41:57.666Z,99046.22
2023-01-03T13:45:57.790Z,99050.09
2023-01-03T13:49:10.198Z,99047.22
2023-01-03T13:52:40.463Z,99056.75
2023-01-03T13:55:54.850Z,99063.75
2023-01-03T13:59:28.485Z,99067.31
2023-01-03T14:03:25.759Z,99078.03
2023-01-03T14:07:04.391Z,99065.88
2023-01-03T14:10:56.706Z,99072.66
2023-01-03T14:14:13.610Z,99079.31
2023-01-03T14:17:30.264Z,99076.56
2023-01-03T14:20:42.632Z,99078.50
2023-01-03T14:24:00.203Z,99074.00
2023-01-03T14:27:17.967Z,99080.16
2023-01-03T14:30:32.791Z,99066.78
2023-01-03T14:33:45.810Z,99076.41
2023-01-03T14:36:52.895Z,99077.41
2023-01-03T14:40:01.908Z,99082.75
2023-01-03T14:43:21.218Z,99085.41
2023-01-03T14:46:28.044Z,99080.00
2023-01-03T14:49:44.816Z,99092.56
2023-01-03T14:52:58.589Z,99091.91
2023-01-03T14:56:07.254Z,99098.72
2023-01-03T14:59:19.948Z,99102.63
2023-01-03T15:02:28.668Z,99107.53
2023-01-03T15:05:38.649Z,99107.38
2023-01-03T15:08:49.590Z,99112.56
2023-01-03T15:12:02.025Z,99115.78
2023-01-03T15:15:27.524Z,99121.34
2023-01-03T15:18:38.023Z,99114.63
2023-01-03T15:21:46.569Z,99120.59
2023-01-03T15:25:05.895Z,99125.47
2023-01-03T15:28:27.387Z,99127.97
2023-01-03T15:31:39.683Z,99131.72
2023-01-03T15:34:47.469Z,99130.94
2023-01-03T15:37:58.529Z,99132.31
2023-01-03T15:41:39.484Z,99140.28
2023-01-03T15:44:46.159Z,99139.25
2023-01-03T15:48:04.963Z,99150.09
2023-01-03T15:51:14.170Z,99134.03
2023-01-03T15:54:23.690Z,99146.31
2023-01-03T15:57:34.258Z,99148.69
2023-01-03T16:00:41.402Z,99150.25
2023-01-03T16:03:54.159Z,99153.56
2023-01-03T16:07:01.546Z,99157.31
2023-01-03T16:10:09.686Z,99159.97
2023-01-03T16:13:16.861Z,99157.75
2023-01-03T16:16:29.868Z,99160.78
2023-01-03T16:19:39.623Z,99169.97
2023-01-03T16:23:00.360Z,99171.94
2023-01-03T16:26:08.560Z,99174.59
2023-01-03T16:29:16.057Z,99173.34
2023-01-03T16:32:27.713Z,99170.13
2023-01-03T16:35:36.435Z,99177.25
2023-01-03T16:38:43.983Z,99178.00
2023-01-03T16:42:04.715Z,99181.59
2023-01-03T16:45:13.464Z,99177.97
2023-01-03T16:48:23.985Z,99172.81
2023-01-03T16:51:44.650Z,99176.28
2023-01-03T16:54:54.458Z,99179.75
2023-01-03T16:58:02.157Z,99178.88
2023-01-03T17:01:09.042Z,99179.88
2023-01-03T17:04:16.175Z,99181.53
2023-01-03T17:07:27.700Z,99181.63
2023-01-03T17:10:40.861Z,99187.16
2023-01-03T17:13:51.266Z,99194.28
2023-01-03T17:16:58.368Z,99186.19
2023-01-03T17:20:05.864Z,99194.13
2023-01-03T17:23:16.103Z,99183.63
2023-01-03T17:26:26.538Z,99192.47
2023-01-03T17:29:34.868Z,99190.97
2023-01-03T17:32:41.007Z,99195.31
2023-01-03T17:35:50.862Z,99198.28
2023-01-03T17:39:03.987Z,99195.94
2023-01-03T17:42:19.975Z,99193.72
2023-01-03T17:45:40.665Z,99198.31
2023-01-03T17:49:00.079Z,99197.88
2023-01-03T17:52:09.339Z,99202.97
2023-01-03T17:55:28.085Z,99215.25
2023-01-03T17:58:40.074Z,99213.84
2023-01-03T18:01:47.766Z,99213.75
2023-01-03T18:08:26.212Z,99219.66
2023-01-03T18:11:35.709Z,99222.47
2023-01-03T18:14:42.629Z,99221.75
2023-01-03T18:17:50.115Z,99223.91
2023-01-03T18:20:58.821Z,99228.22
2023-01-03T18:24:09.680Z,99223.69
2023-01-03T18:27:20.389Z,99231.00
2023-01-03T18:30:26.635Z,99226.03
2023-01-03T18:33:33.902Z,99228.06
2023-01-03T18:36:45.777Z,99226.81
2023-01-03T18:39:53.018Z,99228.63
2023-01-03T18:43:14.301Z,99231.72
2023-01-03T18:46:23.171Z,99240.75
2023-01-03T18:49:29.436Z,99237.81
2023-01-03T18:52:41.263Z,99235.28
2023-01-03T18:55:48.344Z,99236.75
2023-01-03T18:59:02.842Z,99239.66
2023-01-03T19:02:17.935Z,99236.56
2023-01-03T19:05:25.463Z,99242.00
2023-01-03T19:08:36.397Z,99234.44
2023-01-03T19:11:44.085Z,99239.00
2023-01-03T19:14:53.044Z,99244.28
2023-01-03T19:18:01.596Z,99242.38
2023-01-03T19:21:08.537Z,99244.03
2023-01-03T19:24:38.435Z,99250.16
2023-01-03T19:27:50.419Z,99246.41
2023-01-03T19:31:01.282Z,99252.44
2023-01-03T19:34:09.054Z,99249.06
2023-01-03T19:37:16.868Z,99256.91
2023-01-03T19:40:30.937Z,99248.38
2023-01-03T19:43:38.023Z,99258.00
2023-01-03T19:46:47.738Z,99247.91
2023-01-03T19:49:55.102Z,99249.84
2023-01-03T19:53:02.286Z,99230.59
2023-01-03T19:56:25.700Z,99248.84
2023-01-03T19:59:38.062Z,99251.91
2023-01-03T20:02:49.679Z,99251.59
2023-01-03T20:05:56.343Z,99254.38
2023-01-03T20:09:03.452Z,99256.78
2023-01-03T20:12:16.182Z,99261.63
2023-01-03T20:15:28.864Z,99264.06
2023-01-03T20:18:41.615Z,99258.50
2023-01-03T20:21:52.895Z,99268.38
2023-01-03T20:24:59.291Z,99268.91
2023-01-03T20:28:07.291Z,99262.47
2023-01-03T20:31:19.969Z,99269.78
2023-01-03T20:34:30.355Z,99269.47
2023-01-03T20:37:36.945Z,99258.06
2023-01-03T20:40:44.799Z,99270.91
2023-01-03T20:43:52.859Z,99269.94
2023-01-03T20:47:00.911Z,99268.84
2023-01-03T20:50:19.922Z,99264.31
2023-01-03T20:53:30.931Z,99262.41
2023-01-03T20:56:37.454Z,99260.13
2023-01-03T20:59:44.567Z,99261.31
2023-01-03T21:02:51.545Z,99261.69
2023-01-03T21:06:02.493Z,99262.34
2023-01-03T21:09:11.029Z,99269.41
2023-01-03T21:12:18.581Z,99265.94
2023-01-03T21:15:25.233Z,99265.72
2023-01-03T21:18:32.443Z,99271.94
2023-01-03T21:21:42.043Z,99272.41
2023-01-03T21:24:53.934Z,99272.66
2023-01-03T21:28:05.399Z,99270.38
2023-01-03T21:31:21.906Z,99258.00
2023-01-03T21:34:28.384Z,99258.50
2023-01-03T21:37:37.885Z,99258.84
2023-01-03T21:40:44.030Z,99261.84
2023-01-03T21:43:51.118Z,99257.91
2023-01-03T21:46:57.308Z,99258.84
2023-01-03T21:50:04.413Z,99260.41
2023-01-03T21:53:17.134Z,99258.25
2023-01-03T21:56:28.753Z,99265.44
2023-01-03T21:59:38.128Z,99273.59
2023-01-03T22:03:00.305Z,99272.66
2023-01-03T22:06:13.861Z,99272.44
2023-01-03T22:09:35.966Z,99285.22
2023-01-03T22:12:42.389Z,99287.25
2023-01-03T22:15:49.660Z,99283.91
2023-01-03T22:18:56.718Z,99283.53
2023-01-03T22:22:03.733Z,99282.03
2023-01-03T22:25:17.345Z,99275.66
2023-01-03T22:28:25.428Z,99284.72
2023-01-03T22:31:31.657Z,99293.19
2023-01-03T22:34:40.460Z,99280.78
2023-01-03T22:37:46.684Z,99281.16
2023-01-03T22:40:56.234Z,99274.72
2023-01-03T22:44:02.406Z,99263.25
2023-01-03T22:47:09.512Z,99266.28
2023-01-03T22:50:15.711Z,99270.19
2023-01-03T22:53:22.592Z,99270.19
2023-01-03T22:56:31.308Z,99274.63
2023-01-03T22:59:38.253Z,99268.22
2023-01-03T23:02:44.353Z,99278.03
2023-01-03T23:05:51.359Z,99271.09
2023-01-03T23:08:57.446Z,99275.66
2023-01-03T23:12:19.723Z,99279.78
2023-01-03T23:15:25.875Z,99284.59
2023-01-03T23:18:36.628Z,99272.19
2023-01-03T23:21:45.650Z,99273.00
2023-01-03T23:24:52.476Z,99269.97
2023-01-03T23:28:02.196Z,99273.44
2023-01-03T23:31:09.470Z,99276.72
2023-01-03T23:34:16.463Z,99269.88
2023-01-03T23:37:23.504Z,99278.94
2023-01-03T23:40:29.675Z,99269.88
2023-01-03T23:43:40.777Z,99277.34
2023-01-03T23:46:46.847Z,99285.16
2023-01-03T23:49:53.837Z,99273.66
2023-01-03T23:53:01.549Z,99270.91
2023-01-03T23:56:11.754Z,99268.91
2023-01-03T23:59:21.826Z,99271.22
